Time;durP1;ratioP1;P1;durP2;ratioP2;P2;SDS_P1;SDS_P2;PMS_P1;PMS_P2;Temp;Humidity;BMP_temperature;BMP_pressure;BME280_temperature;BME280_humidity;BME280_pressure;Samples;Min_cycle;Max_cycle;Signal;HPM_P1;HPM_P2
2023/01/22 00:01:11;;;;;;;35.95;20.90;;;0.20;99.90;;;;;;5034862;28;20429;-78
2023/01/22 00:03:37;;;;;;;35.55;21.13;;;0.20;99.90;;;;;;5033367;28;20500;-78
2023/01/22 00:06:04;;;;;;;37.70;22.38;;;0.80;99.90;;;;;;5034420;28;20049;-78
2023/01/22 00:08:30;;;;;;;42.42;25.05;;;0.10;99.90;;;;;;5019622;28;20041;-78
2023/01/22 00:10:56;;;;;;;38.58;23.10;;;0.00;99.90;;;;;;5013995;28;20048;-78
2023/01/22 00:13:23;;;;;;;38.60;22.80;;;0.00;99.90;;;;;;5009836;28;20526;-78
2023/01/22 00:15:50;;;;;;;41.22;24.15;;;-0.10;99.90;;;;;;5017387;28;20053;-78
2023/01/22 00:18:16;;;;;;;43.08;23.80;;;-0.10;99.90;;;;;;5007984;28;20053;-78
2023/01/22 00:20:47;;;;;;;38.15;22.65;;;-0.10;99.90;;;;;;5030310;28;20064;-78
2023/01/22 00:23:13;;;;;;;36.22;21.38;;;-0.20;99.90;;;;;;5018073;28;20139;-78
2023/01/22 00:25:39;;;;;;;37.03;22.10;;;0.00;99.90;;;;;;5020609;28;20081;-78
2023/01/22 00:28:06;;;;;;;39.30;23.00;;;-0.10;99.90;;;;;;5035113;28;20118;-79
2023/01/22 00:30:32;;;;;;;36.97;21.27;;;-0.30;99.90;;;;;;5022514;28;20091;-79
2023/01/22 00:32:57;;;;;;;38.00;21.50;;;-0.30;99.90;;;;;;5056260;28;20041;-79
2023/01/22 00:35:23;;;;;;;38.03;22.10;;;0.20;99.90;;;;;;5020034;28;20131;-78
2023/01/22 00:37:49;;;;;;;40.75;22.45;;;-0.30;99.90;;;;;;5020495;28;20433;-78
2023/01/22 00:40:16;;;;;;;43.97;25.33;;;0.40;99.90;;;;;;5019242;28;20044;-78
2023/01/22 00:42:41;;;;;;;44.17;23.02;;;-0.40;99.90;;;;;;5031553;28;20064;-78
2023/01/22 00:45:08;;;;;;;44.72;24.45;;;-0.40;99.90;;;;;;5025617;28;20473;-79
2023/01/22 00:47:34;;;;;;;41.10;22.58;;;-0.40;99.90;;;;;;5037668;28;20056;-78
2023/01/22 00:50:01;;;;;;;39.20;23.10;;;-0.10;99.90;;;;;;5020757;28;20079;-79
2023/01/22 00:52:27;;;;;;;40.80;23.25;;;-0.40;99.90;;;;;;5031061;28;20140;-79
2023/01/22 00:54:52;;;;;;;38.65;23.25;;;-0.40;99.90;;;;;;5036543;28;20136;-79
2023/01/22 00:57:20;;;;;;;38.20;22.88;;;-0.40;99.90;;;;;;5034773;28;20051;-78
2023/01/22 00:59:51;;;;;;;37.05;22.13;;;-0.50;99.90;;;;;;5037181;28;20055;-79
2023/01/22 01:02:17;;;;;;;40.35;23.83;;;-0.50;99.90;;;;;;5020155;28;20132;-78
2023/01/22 01:04:43;;;;;;;38.15;23.15;;;0.30;99.90;;;;;;5037308;28;20389;-79
2023/01/22 01:07:09;;;;;;;39.50;23.30;;;-0.30;99.90;;;;;;5019489;28;20055;-79
2023/01/22 01:09:34;;;;;;;39.08;23.15;;;-0.40;99.90;;;;;;5016330;28;20053;-79
2023/01/22 01:12:00;;;;;;;36.35;21.75;;;-0.30;99.90;;;;;;5031795;28;20097;-79
2023/01/22 01:14:26;;;;;;;38.58;21.10;;;-0.50;99.90;;;;;;5053605;28;20052;-79
2023/01/22 01:16:52;;;;;;;38.67;22.42;;;-0.60;99.90;;;;;;5029400;28;20138;-79
2023/01/22 01:19:21;;;;;;;36.17;22.10;;;-0.60;99.90;;;;;;5035880;28;20072;-79
2023/01/22 01:21:47;;;;;;;37.28;23.00;;;-0.60;99.90;;;;;;5017244;28;20111;-79
2023/01/22 01:24:13;;;;;;;35.72;22.00;;;-0.60;99.90;;;;;;5003923;28;20045;-79
2023/01/22 01:26:39;;;;;;;39.05;22.42;;;-0.70;99.90;;;;;;5034615;28;20047;-80
2023/01/22 01:29:08;;;;;;;41.45;22.85;;;-0.70;99.90;;;;;;5036615;28;20405;-79
2023/01/22 01:31:35;;;;;;;37.25;22.17;;;-0.70;99.90;;;;;;5019107;28;20077;-79
2023/01/22 01:34:03;;;;;;;39.60;22.88;;;-0.80;99.90;;;;;;5018365;28;20083;-80
2023/01/22 01:36:29;;;;;;;38.90;22.58;;;-0.70;99.90;;;;;;5016022;28;20101;-79
2023/01/22 01:38:56;;;;;;;37.20;21.90;;;-0.70;99.90;;;;;;5015727;28;20128;-79
2023/01/22 01:41:24;;;;;;;37.58;21.92;;;-0.70;99.90;;;;;;5016913;28;20488;-79
2023/01/22 01:44:13;;;;;;;35.00;21.98;;;-0.70;99.90;;;;;;5016498;28;20081;-79
2023/01/22 01:46:54;;;;;;;35.75;21.35;;;-0.30;99.90;;;;;;4987924;28;20049;-80
2023/01/22 01:49:22;;;;;;;39.90;23.30;;;-0.60;99.90;;;;;;5016358;28;20049;-79
2023/01/22 01:51:48;;;;;;;39.80;22.80;;;-0.50;99.90;;;;;;5004330;28;20139;-79
2023/01/22 01:54:15;;;;;;;38.92;22.90;;;0.00;99.90;;;;;;5009309;28;20050;-80
2023/01/22 01:56:46;;;;;;;41.55;24.20;;;-0.10;99.90;;;;;;5013067;28;20132;-79
2023/01/22 01:59:16;;;;;;;38.85;22.98;;;-0.40;99.90;;;;;;5014645;28;20053;-80
2023/01/22 02:01:47;;;;;;;35.35;21.10;;;-0.40;99.90;;;;;;4997084;28;20080;-80
2023/01/22 02:04:13;;;;;;;32.55;20.73;;;-0.40;99.90;;;;;;5014994;28;20056;-79
2023/01/22 02:06:40;;;;;;;31.55;20.25;;;-0.30;99.90;;;;;;4999499;28;20056;-79
2023/01/22 02:09:05;;;;;;;30.70;19.83;;;-0.20;99.90;;;;;;5013326;28;20132;-79
2023/01/22 02:11:32;;;;;;;33.20;18.70;;;0.20;99.90;;;;;;5014780;28;20188;-79
2023/01/22 02:14:12;;;;;;;25.67;17.10;;;0.40;99.90;;;;;;5014147;28;20057;-79
2023/01/22 02:16:38;;;;;;;24.45;14.93;;;0.00;99.90;;;;;;4999137;28;20053;-80
2023/01/22 02:19:04;;;;;;;23.30;14.57;;;0.00;99.90;;;;;;5015722;28;20110;-79
2023/01/22 02:21:41;;;;;;;22.05;14.63;;;0.30;99.90;;;;;;5001872;28;20432;-80
2023/01/22 02:24:10;;;;;;;23.45;14.80;;;0.20;99.90;;;;;;4995653;28;20053;-79
2023/01/22 02:26:37;;;;;;;24.45;15.32;;;0.20;99.90;;;;;;5010340;28;20068;-79
2023/01/22 02:29:06;;;;;;;26.02;16.20;;;0.20;99.90;;;;;;5005442;28;20096;-79
2023/01/22 02:31:33;;;;;;;20.90;13.77;;;0.40;99.90;;;;;;5010140;28;20046;-79
2023/01/22 02:34:00;;;;;;;20.35;12.75;;;0.70;99.90;;;;;;5002187;28;20471;-79
2023/01/22 02:36:28;;;;;;;17.30;10.73;;;0.70;99.90;;;;;;5015372;28;20057;-79
2023/01/22 02:38:53;;;;;;;16.27;11.05;;;0.40;99.90;;;;;;5018986;28;20053;-78
2023/01/22 02:41:19;;;;;;;15.57;10.98;;;0.50;99.90;;;;;;5029156;28;20072;-79
2023/01/22 02:43:45;;;;;;;16.73;10.80;;;0.50;99.90;;;;;;5029354;28;20493;-80
2023/01/22 02:46:11;;;;;;;17.08;11.35;;;0.50;99.90;;;;;;5027420;28;20041;-80
2023/01/22 02:48:36;;;;;;;19.25;11.88;;;0.50;99.90;;;;;;5016098;28;20048;-79
2023/01/22 02:51:03;;;;;;;17.70;11.88;;;0.50;99.90;;;;;;5031877;28;20045;-79
2023/01/22 02:53:29;;;;;;;18.33;11.32;;;0.50;99.90;;;;;;5047427;28;20036;-79
2023/01/22 02:55:54;;;;;;;16.27;11.25;;;0.70;99.90;;;;;;5007134;28;20533;-79
2023/01/22 02:58:20;;;;;;;19.60;11.95;;;0.50;99.90;;;;;;5034778;28;20044;-79
2023/01/22 03:00:46;;;;;;;16.77;11.60;;;0.50;99.90;;;;;;5035447;28;20128;-79
2023/01/22 03:03:15;;;;;;;16.52;10.43;;;0.50;99.90;;;;;;5035401;28;20389;-81
2023/01/22 03:05:51;;;;;;;15.70;10.30;;;1.30;99.90;;;;;;5034770;28;20107;-79
2023/01/22 03:08:17;;;;;;;16.45;10.48;;;0.70;99.90;;;;;;5034984;28;20448;-79
2023/01/22 03:10:43;;;;;;;15.32;10.40;;;0.60;99.90;;;;;;5033640;28;20048;-79
2023/01/22 03:21:23;;;;;;;15.35;10.73;;;0.50;99.90;;;;;;5039626;28;20095;-79
2023/01/22 03:23:51;;;;;;;12.23;8.30;;;0.70;99.90;;;;;;5020506;28;20092;-79
2023/01/22 03:26:19;;;;;;;15.35;10.18;;;0.70;99.90;;;;;;5030283;28;20040;-79
2023/01/22 03:28:45;;;;;;;17.23;11.38;;;0.70;99.90;;;;;;5034371;28;20132;-79
2023/01/22 03:31:12;;;;;;;17.48;10.32;;;0.90;99.90;;;;;;5020611;28;20459;-77
2023/01/22 03:33:38;;;;;;;15.18;10.23;;;1.00;99.90;;;;;;5028348;28;20054;-79
2023/01/22 03:36:06;;;;;;;16.33;10.13;;;0.60;99.90;;;;;;5060357;28;20088;-79
2023/01/22 03:38:32;;;;;;;16.02;9.63;;;0.60;99.90;;;;;;5050015;28;20047;-78
2023/01/22 03:41:06;;;;;;;14.25;9.18;;;0.60;99.90;;;;;;5023194;28;20423;-78
2023/01/22 03:43:33;;;;;;;14.13;9.50;;;0.60;99.90;;;;;;5015355;28;20041;-79
2023/01/22 03:46:05;;;;;;;14.90;9.68;;;0.60;99.90;;;;;;5017439;28;20132;-80
2023/01/22 03:48:32;;;;;;;15.48;9.65;;;0.70;99.90;;;;;;5025327;28;20060;-81
2023/01/22 03:51:07;;;;;;;14.75;9.90;;;0.80;99.90;;;;;;5022996;28;20045;-80
2023/01/22 03:53:33;;;;;;;16.17;9.50;;;0.70;99.90;;;;;;5031151;28;20053;-79
2023/01/22 03:56:01;;;;;;;16.38;10.00;;;0.70;99.90;;;;;;5023466;28;20076;-79
2023/01/22 03:58:28;;;;;;;15.00;9.73;;;0.70;99.90;;;;;;5017793;28;20045;-80
2023/01/22 04:00:56;;;;;;;14.35;9.82;;;0.60;99.90;;;;;;5032371;28;20085;-80
2023/01/22 04:03:26;;;;;;;12.55;10.18;;;0.60;99.90;;;;;;5038438;28;20048;-80
2023/01/22 04:05:53;;;;;;;13.10;10.15;;;0.60;99.90;;;;;;5034646;28;20049;-80
2023/01/22 04:08:19;;;;;;;12.63;10.05;;;0.70;99.90;;;;;;5017622;28;20045;-78
2023/01/22 04:10:44;;;;;;;13.55;10.60;;;0.80;99.90;;;;;;5037739;28;20049;-79
2023/01/22 04:13:10;;;;;;;13.52;10.77;;;0.70;99.90;;;;;;5029694;28;20124;-79
2023/01/22 04:15:36;;;;;;;15.27;10.15;;;1.10;99.90;;;;;;5029179;28;20093;-79
2023/01/22 04:18:02;;;;;;;14.45;10.68;;;1.20;99.90;;;;;;5052244;28;20106;-80
2023/01/22 04:20:28;;;;;;;15.55;11.13;;;0.60;99.90;;;;;;5037785;28;20048;-81
2023/01/22 04:22:53;;;;;;;14.73;11.52;;;1.00;99.90;;;;;;5001830;28;20127;-80
2023/01/22 04:25:19;;;;;;;14.43;10.65;;;0.60;99.90;;;;;;5027668;28;20045;-79
2023/01/22 04:27:45;;;;;;;13.68;10.63;;;0.60;99.90;;;;;;5037572;28;20048;-79
2023/01/22 04:30:11;;;;;;;19.27;11.40;;;0.60;99.90;;;;;;5037975;28;20183;-79
2023/01/22 04:32:37;;;;;;;14.40;10.45;;;0.60;99.90;;;;;;5023546;28;20060;-81
2023/01/22 04:35:03;;;;;;;15.00;10.98;;;0.90;99.90;;;;;;5037023;28;20049;-79
2023/01/22 04:37:30;;;;;;;15.25;10.35;;;0.60;99.90;;;;;;5034307;28;20064;-80
2023/01/22 04:39:56;;;;;;;14.32;10.60;;;0.60;99.90;;;;;;5030434;28;20091;-79
2023/01/22 04:42:21;;;;;;;14.23;9.93;;;0.60;99.90;;;;;;5045304;28;20072;-79
2023/01/22 04:44:47;;;;;;;12.90;9.98;;;1.30;99.90;;;;;;5020675;28;20045;-79
2023/01/22 04:47:13;;;;;;;12.18;9.02;;;0.60;99.90;;;;;;5037560;28;20071;-79
2023/01/22 04:49:39;;;;;;;12.82;10.07;;;0.60;99.90;;;;;;5037566;28;20132;-79
2023/01/22 04:52:04;;;;;;;14.75;10.77;;;0.60;99.90;;;;;;5050860;28;20041;-79
2023/01/22 04:54:30;;;;;;;12.63;9.82;;;0.60;99.90;;;;;;5019823;28;20388;-79
2023/01/22 04:56:56;;;;;;;13.75;9.77;;;0.90;99.90;;;;;;5022998;28;20371;-79
2023/01/22 04:59:22;;;;;;;13.07;10.82;;;0.60;99.90;;;;;;5037179;28;20057;-79
2023/01/22 05:01:49;;;;;;;13.70;9.82;;;0.60;99.90;;;;;;5037369;28;20045;-78
2023/01/22 05:04:15;;;;;;;13.30;10.27;;;1.20;99.90;;;;;;5037170;28;20044;-79
2023/01/22 05:06:41;;;;;;;13.75;10.43;;;0.60;99.90;;;;;;5015884;28;20081;-80
2023/01/22 05:09:07;;;;;;;10.40;8.60;;;0.60;99.90;;;;;;5034194;28;20044;-79
2023/01/22 05:11:33;;;;;;;12.20;9.63;;;0.70;99.90;;;;;;5036911;28;20087;-78
2023/01/22 05:13:59;;;;;;;11.77;9.57;;;1.50;99.90;;;;;;5036574;28;20493;-78
2023/01/22 05:16:25;;;;;;;12.93;9.57;;;0.80;99.90;;;;;;5028250;28;20057;-78
2023/01/22 05:18:50;;;;;;;11.35;9.52;;;0.60;99.90;;;;;;5030629;28;20045;-80
2023/01/22 05:21:16;;;;;;;10.98;8.70;;;1.20;99.90;;;;;;5017464;28;20132;-79
2023/01/22 05:23:43;;;;;;;12.75;9.40;;;0.60;99.90;;;;;;5028837;28;20101;-79
2023/01/22 05:26:09;;;;;;;11.18;9.60;;;0.60;99.90;;;;;;5022911;28;20045;-79
2023/01/22 05:28:35;;;;;;;12.60;9.73;;;0.60;99.90;;;;;;5047280;28;20060;-79
2023/01/22 05:31:01;;;;;;;12.93;9.00;;;0.80;99.90;;;;;;5036665;28;20481;-79
2023/01/22 05:33:31;;;;;;;11.30;9.73;;;0.60;99.90;;;;;;5049953;28;20060;-79
2023/01/22 05:35:58;;;;;;;12.23;9.60;;;0.60;99.90;;;;;;5028505;28;20519;-79
2023/01/22 05:38:25;;;;;;;12.30;8.77;;;0.70;99.90;;;;;;4999966;28;20042;-78
2023/01/22 05:40:51;;;;;;;14.40;10.55;;;0.60;99.90;;;;;;5036452;28;20449;-79
2023/01/22 05:43:17;;;;;;;13.07;10.20;;;0.80;99.90;;;;;;5005810;28;20106;-79
2023/01/22 05:45:43;;;;;;;13.18;9.70;;;0.50;99.90;;;;;;5000274;28;20069;-80
2023/01/22 05:48:08;;;;;;;14.65;10.68;;;1.10;99.90;;;;;;5018734;28;20045;-78
2023/01/22 05:50:35;;;;;;;11.45;10.25;;;0.90;99.90;;;;;;5023419;28;20045;-79
2023/01/22 05:53:01;;;;;;;13.00;11.00;;;0.60;99.90;;;;;;5007382;28;20499;-79
2023/01/22 05:55:27;;;;;;;13.77;10.55;;;0.50;99.90;;;;;;5003669;28;20469;-79
2023/01/22 05:57:53;;;;;;;13.15;10.25;;;1.10;99.90;;;;;;5036275;28;20107;-79
2023/01/22 06:00:18;;;;;;;14.50;10.70;;;0.60;99.90;;;;;;5019342;28;20418;-79
2023/01/22 06:02:44;;;;;;;13.07;10.50;;;0.50;99.90;;;;;;5019834;28;20133;-79
2023/01/22 06:05:10;;;;;;;14.43;11.25;;;0.50;99.90;;;;;;5016013;28;20095;-78
2023/01/22 06:07:36;;;;;;;15.77;12.00;;;0.60;99.90;;;;;;4996750;28;20045;-79
2023/01/22 06:10:02;;;;;;;15.68;10.80;;;0.50;99.90;;;;;;5015262;28;20051;-79
2023/01/22 06:12:27;;;;;;;14.90;10.77;;;0.50;99.90;;;;;;5032917;28;20037;-79
2023/01/22 06:14:53;;;;;;;13.63;9.98;;;0.90;99.90;;;;;;5016017;28;20046;-78
2023/01/22 06:17:20;;;;;;;16.30;10.40;;;0.50;99.90;;;;;;5045316;28;20048;-80
2023/01/22 06:19:46;;;;;;;12.10;9.55;;;0.50;99.90;;;;;;5027400;28;20045;-79
2023/01/22 06:22:12;;;;;;;11.52;9.23;;;1.50;99.90;;;;;;5016257;28;20516;-78
2023/01/22 06:24:37;;;;;;;14.45;9.55;;;0.50;99.90;;;;;;5016600;28;20056;-79
2023/01/22 06:27:04;;;;;;;11.65;9.68;;;0.50;99.90;;;;;;5035572;28;20060;-79
2023/01/22 06:29:30;;;;;;;13.48;10.00;;;0.50;99.90;;;;;;5016876;28;20048;-79
2023/01/22 06:31:56;;;;;;;13.02;10.25;;;0.50;99.90;;;;;;5030984;28;20437;-79
2023/01/22 06:34:22;;;;;;;13.48;9.80;;;0.80;99.90;;;;;;5030844;28;20054;-79
2023/01/22 06:36:48;;;;;;;14.52;9.57;;;0.50;99.90;;;;;;5019189;28;20056;-79
2023/01/22 06:39:14;;;;;;;15.38;10.70;;;0.50;99.90;;;;;;5022088;28;20095;-79
2023/01/22 06:41:39;;;;;;;13.88;10.18;;;0.50;99.90;;;;;;5035140;28;20508;-79
2023/01/22 06:44:05;;;;;;;14.98;10.18;;;0.50;99.90;;;;;;5018962;28;20049;-78
2023/01/22 06:46:31;;;;;;;14.60;10.43;;;0.60;99.90;;;;;;5035306;28;20048;-79
2023/01/22 06:49:00;;;;;;;14.20;10.05;;;1.10;99.90;;;;;;5035055;28;20476;-80
2023/01/22 06:51:27;;;;;;;13.52;9.90;;;1.10;99.90;;;;;;5034943;28;20049;-79
2023/01/22 06:53:53;;;;;;;11.25;8.70;;;1.00;99.90;;;;;;5029189;28;20428;-79
2023/01/22 06:56:19;;;;;;;13.15;9.32;;;1.50;99.90;;;;;;5027591;28;20053;-79
2023/01/22 06:58:44;;;;;;;15.48;9.98;;;0.40;99.90;;;;;;5050554;28;20052;-78
2023/01/22 07:01:10;;;;;;;14.50;9.43;;;0.70;99.90;;;;;;5017656;28;20492;-79
2023/01/22 07:03:36;;;;;;;11.38;9.27;;;0.40;99.90;;;;;;5017500;28;20111;-80
2023/01/22 07:06:03;;;;;;;12.85;9.63;;;0.40;99.90;;;;;;5035079;28;20048;-80
2023/01/22 07:08:31;;;;;;;14.25;10.35;;;0.30;99.90;;;;;;5016160;28;20041;-79
2023/01/22 07:10:57;;;;;;;12.55;10.18;;;1.30;99.90;;;;;;5018337;28;20314;-79
2023/01/22 07:13:23;;;;;;;13.02;9.80;;;0.30;99.90;;;;;;5035229;28;20059;-80
2023/01/22 07:15:49;;;;;;;13.98;10.25;;;0.30;99.90;;;;;;5033098;28;20041;-79
2023/01/22 07:18:18;;;;;;;14.43;10.10;;;0.30;99.90;;;;;;5034896;28;20040;-79
2023/01/22 07:20:44;;;;;;;12.68;9.85;;;1.20;99.90;;;;;;5020969;28;20481;-79
2023/01/22 07:23:10;;;;;;;13.98;10.77;;;0.50;99.90;;;;;;5026687;28;20046;-79
2023/01/22 07:25:35;;;;;;;12.95;10.48;;;0.90;99.90;;;;;;5028803;28;20049;-79
2023/01/22 07:28:03;;;;;;;16.35;11.25;;;0.40;99.90;;;;;;5034846;28;20443;-79
2023/01/22 07:30:29;;;;;;;13.95;10.80;;;0.40;99.90;;;;;;5022517;28;20057;-78
2023/01/22 07:32:59;;;;;;;15.05;11.15;;;0.40;99.90;;;;;;5016997;28;20095;-79
2023/01/22 07:35:25;;;;;;;14.25;11.07;;;0.40;99.90;;;;;;5036132;28;20099;-79
2023/01/22 07:37:56;;;;;;;12.93;10.55;;;0.50;99.90;;;;;;5038750;28;20083;-80
2023/01/22 07:40:23;;;;;;;15.43;11.57;;;0.40;99.90;;;;;;5028297;28;20103;-79
2023/01/22 07:42:50;;;;;;;15.63;10.50;;;0.40;99.90;;;;;;5052480;28;20427;-79
2023/01/22 07:45:19;;;;;;;14.00;11.18;;;0.40;99.90;;;;;;5038582;28;20049;-79
2023/01/22 07:47:56;;;;;;;14.63;11.10;;;0.40;99.90;;;;;;5024404;28;20045;-79
2023/01/22 07:50:31;;;;;;;13.32;10.55;;;0.40;99.90;;;;;;5038336;28;20059;-79
2023/01/22 07:52:59;;;;;;;13.30;10.30;;;0.40;99.90;;;;;;5009835;28;20053;-79
2023/01/22 07:55:25;;;;;;;14.45;10.32;;;0.40;99.90;;;;;;5022078;28;20063;-80
2023/01/22 07:58:05;;;;;;;13.48;10.35;;;0.50;99.90;;;;;;5018616;28;20405;-79
2023/01/22 08:00:34;;;;;;;14.32;10.20;;;1.30;99.90;;;;;;5036118;28;20040;-79
2023/01/22 08:03:00;;;;;;;14.18;10.93;;;0.60;99.90;;;;;;5028805;28;20060;-79
2023/01/22 08:05:26;;;;;;;13.88;10.93;;;0.50;99.90;;;;;;5024053;28;20493;-80
2023/01/22 08:07:52;;;;;;;14.02;10.60;;;0.50;99.90;;;;;;5030161;28;20053;-79
2023/01/22 08:10:17;;;;;;;13.35;10.82;;;0.50;99.90;;;;;;5017683;28;20049;-79
2023/01/22 08:12:44;;;;;;;13.32;11.38;;;0.50;99.90;;;;;;5005334;28;20049;-79
2023/01/22 08:15:10;;;;;;;14.85;11.63;;;0.50;99.90;;;;;;5038102;28;20542;-79
2023/01/22 08:17:37;;;;;;;15.45;11.90;;;0.50;99.90;;;;;;5019627;28;20103;-79
2023/01/22 08:20:04;;;;;;;14.07;12.18;;;0.50;99.90;;;;;;5018116;28;20046;-79
2023/01/22 08:22:30;;;;;;;17.27;11.82;;;0.50;99.90;;;;;;5034838;28;20100;-79
2023/01/22 08:24:56;;;;;;;17.52;12.23;;;0.50;99.90;;;;;;5043011;28;20040;-80
2023/01/22 08:27:22;;;;;;;14.82;12.13;;;0.90;99.90;;;;;;5023578;28;20124;-79
2023/01/22 08:29:50;;;;;;;14.20;11.82;;;0.60;99.90;;;;;;5031026;28;20419;-79
2023/01/22 08:32:18;;;;;;;14.88;12.15;;;0.90;99.90;;;;;;5048165;28;20041;-79
2023/01/22 08:34:43;;;;;;;13.73;10.88;;;0.80;99.90;;;;;;5037038;28;20516;-79
2023/01/22 08:37:09;;;;;;;14.98;12.30;;;0.60;99.90;;;;;;5037923;28;20053;-79
2023/01/22 08:39:35;;;;;;;16.08;11.88;;;1.00;99.90;;;;;;5033896;28;20132;-80
2023/01/22 08:42:01;;;;;;;15.57;12.80;;;0.60;99.90;;;;;;5037858;28;20068;-79
2023/01/22 08:44:26;;;;;;;14.68;11.63;;;0.60;99.90;;;;;;5036947;28;20048;-78
2023/01/22 08:46:52;;;;;;;14.85;12.45;;;1.10;99.90;;;;;;5036792;28;20041;-78
2023/01/22 08:49:20;;;;;;;16.63;12.48;;;0.70;99.90;;;;;;5037759;28;20049;-79
2023/01/22 08:51:46;;;;;;;13.80;12.07;;;0.70;99.90;;;;;;5034557;28;20481;-79
2023/01/22 08:54:11;;;;;;;14.82;12.18;;;0.80;99.90;;;;;;5019650;28;20144;-79
2023/01/22 08:56:37;;;;;;;14.98;12.10;;;0.80;99.90;;;;;;5064650;28;20049;-79
2023/01/22 08:59:05;;;;;;;18.10;13.02;;;0.80;99.90;;;;;;5017303;28;20116;-78
2023/01/22 09:01:32;;;;;;;15.13;11.82;;;0.80;99.90;;;;;;5029623;28;20378;-78
2023/01/22 09:03:58;;;;;;;16.52;13.05;;;1.10;99.90;;;;;;5036684;28;20056;-78
2023/01/22 09:06:25;;;;;;;16.48;12.02;;;0.80;99.90;;;;;;5034413;28;20044;-79
2023/01/22 09:08:52;;;;;;;17.10;11.63;;;0.80;99.90;;;;;;5029906;28;20102;-78
2023/01/22 09:11:18;;;;;;;15.10;12.18;;;1.90;99.90;;;;;;5026000;28;20049;-78
2023/01/22 09:13:44;;;;;;;16.58;12.45;;;0.80;99.90;;;;;;5036491;28;20049;-79
2023/01/22 09:16:10;;;;;;;16.60;11.85;;;1.00;99.90;;;;;;5037295;28;20467;-79
2023/01/22 09:18:38;;;;;;;15.65;12.60;;;0.90;99.90;;;;;;5036706;28;20128;-79
2023/01/22 09:21:04;;;;;;;15.10;11.43;;;0.80;99.90;;;;;;5031987;28;20120;-79
2023/01/22 09:23:30;;;;;;;15.73;11.70;;;0.80;99.90;;;;;;5060147;28;20124;-78
2023/01/22 09:25:56;;;;;;;16.20;11.98;;;0.80;99.90;;;;;;5055859;28;20045;-78
2023/01/22 09:28:22;;;;;;;13.90;12.05;;;0.80;99.90;;;;;;5028135;28;20132;-78
2023/01/22 09:30:47;;;;;;;14.77;11.43;;;0.70;99.90;;;;;;5012556;28;20507;-78
2023/01/22 09:33:13;;;;;;;15.80;11.05;;;0.80;99.90;;;;;;5020417;28;20040;-78
2023/01/22 09:35:39;;;;;;;17.00;12.02;;;0.80;99.90;;;;;;5034782;28;20056;-78
2023/01/22 09:38:05;;;;;;;14.93;11.82;;;1.40;99.90;;;;;;5036123;28;20132;-79
2023/01/22 09:40:37;;;;;;;17.67;11.82;;;1.20;99.90;;;;;;5034061;28;20060;-79
2023/01/22 09:43:06;;;;;;;15.63;11.50;;;0.80;99.90;;;;;;5030361;28;20132;-79
2023/01/22 09:45:34;;;;;;;15.55;11.50;;;0.70;99.90;;;;;;5034448;28;20049;-79
2023/01/22 09:48:05;;;;;;;16.10;12.13;;;0.70;99.90;;;;;;5029743;28;20061;-78
2023/01/22 09:50:33;;;;;;;13.93;11.32;;;1.70;99.90;;;;;;5062710;28;20068;-78
2023/01/22 09:53:03;;;;;;;15.40;11.43;;;1.10;99.90;;;;;;5027291;28;20084;-79
2023/01/22 09:55:37;;;;;;;14.60;11.88;;;0.70;99.90;;;;;;5022194;28;20049;-79
2023/01/22 09:58:08;;;;;;;14.93;11.25;;;0.80;99.90;;;;;;5015612;28;20064;-79
2023/01/22 10:00:47;;;;;;;15.18;11.65;;;0.80;99.90;;;;;;5031067;28;20057;-79
2023/01/22 10:03:30;;;;;;;16.38;11.38;;;0.80;99.90;;;;;;5029295;28;20065;-79
2023/01/22 10:06:01;;;;;;;16.25;11.95;;;0.80;99.90;;;;;;5017413;28;20056;-79
2023/01/22 10:08:37;;;;;;;14.50;11.98;;;0.80;99.90;;;;;;5020561;28;20060;-78
2023/01/22 10:11:06;;;;;;;35.67;23.15;;;0.80;99.90;;;;;;5057167;28;20052;-79
2023/01/22 10:13:34;;;;;;;35.80;20.80;;;1.10;99.90;;;;;;5036146;28;20087;-79
2023/01/22 10:16:01;;;;;;;171.20;88.75;;;0.90;99.90;;;;;;5032405;28;20076;-79
2023/01/22 10:18:48;;;;;;;178.25;80.95;;;0.90;99.90;;;;;;5029178;28;20473;-80
2023/01/22 10:21:17;;;;;;;90.80;51.05;;;0.90;99.90;;;;;;5029896;28;20044;-80
2023/01/22 10:23:43;;;;;;;66.05;40.45;;;0.90;99.90;;;;;;5028073;28;20362;-80
2023/01/22 10:26:36;;;;;;;70.63;44.33;;;0.90;99.90;;;;;;5067943;28;20093;-80
2023/01/22 10:29:30;;;;;;;30.73;23.15;;;1.00;99.90;;;;;;5032561;28;20127;-79
2023/01/22 10:31:59;;;;;;;19.27;15.52;;;1.00;99.90;;;;;;5036162;28;20132;-79
2023/01/22 10:34:34;;;;;;;22.67;16.92;;;1.00;99.90;;;;;;5009534;28;20053;-80
2023/01/22 10:37:03;;;;;;;23.25;17.60;;;1.00;99.90;;;;;;5011637;28;20065;-80
2023/01/22 10:39:40;;;;;;;18.88;14.95;;;1.70;99.90;;;;;;5014615;28;20132;-80
2023/01/22 10:42:14;;;;;;;20.05;16.45;;;1.00;99.90;;;;;;5021069;28;20129;-79
2023/01/22 10:44:40;;;;;;;19.02;14.52;;;1.10;99.90;;;;;;5045158;28;20091;-79
2023/01/22 10:47:08;;;;;;;41.67;27.08;;;1.00;99.90;;;;;;5006135;28;20427;-79
2023/01/22 10:49:33;;;;;;;46.20;31.50;;;1.00;99.90;;;;;;5007984;28;20494;-79
2023/01/22 10:52:14;;;;;;;20.17;15.23;;;1.00;99.90;;;;;;5004089;28;20044;-79
2023/01/22 10:54:42;;;;;;;21.13;15.80;;;1.00;99.90;;;;;;4998669;28;20065;-79
2023/01/22 10:57:30;;;;;;;25.25;21.77;;;1.10;99.90;;;;;;5014781;28;20053;-79
2023/01/22 11:00:04;;;;;;;21.52;17.92;;;1.00;99.90;;;;;;5048319;28;20546;-79
2023/01/22 11:02:33;;;;;;;19.45;16.15;;;1.00;99.90;;;;;;5002030;28;20118;-79
2023/01/22 11:05:22;;;;;;;16.30;14.40;;;1.00;99.90;;;;;;4999156;28;20046;-79
2023/01/22 11:08:18;;;;;;;20.02;16.02;;;1.00;99.90;;;;;;5012286;28;20061;-79
2023/01/22 11:10:52;;;;;;;18.52;15.13;;;1.00;99.90;;;;;;4985992;28;20131;-79
2023/01/22 11:13:28;;;;;;;18.55;15.68;;;0.00;99.90;;;;;;5010869;28;20130;-80
2023/01/22 11:16:11;;;;;;;18.27;15.50;;;1.00;99.90;;;;;;4981764;28;20065;-79
2023/01/22 11:18:48;;;;;;;21.20;17.45;;;1.10;99.90;;;;;;5007995;28;20053;-79
2023/01/22 11:21:18;;;;;;;16.75;13.30;;;1.10;99.90;;;;;;5008591;28;20045;-79
2023/01/22 11:23:51;;;;;;;17.55;14.35;;;1.10;99.90;;;;;;5030208;28;20137;-79
2023/01/22 11:26:25;;;;;;;17.23;13.77;;;1.10;99.90;;;;;;5048468;28;20037;-79
2023/01/22 11:29:03;;;;;;;17.35;13.70;;;1.10;99.90;;;;;;5015185;28;20041;-79
2023/01/22 11:31:42;;;;;;;17.17;13.20;;;1.10;99.90;;;;;;5015442;28;20049;-79
2023/01/22 11:34:29;;;;;;;18.02;13.35;;;1.10;99.90;;;;;;5003970;28;20053;-79
2023/01/22 11:37:01;;;;;;;17.90;13.85;;;1.10;99.90;;;;;;5048313;28;20497;-79
2023/01/22 11:39:42;;;;;;;16.15;12.55;;;1.10;99.90;;;;;;5020209;28;20041;-80
2023/01/22 11:42:34;;;;;;;17.25;12.60;;;1.10;99.90;;;;;;5035003;28;20052;-79
2023/01/22 11:45:38;;;;;;;17.60;12.85;;;1.20;99.90;;;;;;5010128;28;20476;-79
2023/01/22 11:48:11;;;;;;;18.33;14.32;;;1.20;99.90;;;;;;4968214;28;20128;-80
2023/01/22 11:50:59;;;;;;;;;;;1.20;99.90;;;;;;5022435;28;20049;-79
2023/01/22 11:53:45;;;;;;;16.92;11.45;;;1.30;99.90;;;;;;5019571;28;20019;-81
2023/01/22 11:56:38;;;;;;;15.63;12.02;;;1.30;99.90;;;;;;5024270;28;20037;-79
2023/01/22 11:59:50;;;;;;;14.75;11.93;;;1.30;99.90;;;;;;5022663;28;20497;-78
2023/01/22 12:02:52;;;;;;;17.83;12.30;;;1.30;99.90;;;;;;5021560;28;20500;-79
2023/01/22 12:05:36;;;;;;;17.40;12.75;;;1.40;99.90;;;;;;5026306;28;20073;-80
2023/01/22 12:08:37;;;;;;;17.65;12.60;;;1.40;99.90;;;;;;5034204;28;20056;-80
2023/01/22 12:11:22;;;;;;;16.33;11.90;;;1.30;99.90;;;;;;5026657;28;20404;-79
2023/01/22 12:13:51;;;;;;;18.48;12.65;;;1.40;99.90;;;;;;5033175;28;20072;-80
2023/01/22 12:16:31;;;;;;;31.63;23.10;;;1.40;99.90;;;;;;5014960;28;20050;-79
2023/01/22 12:19:14;;;;;;;43.80;29.08;;;1.40;99.90;;;;;;5063414;28;20098;-79
2023/01/22 12:21:50;;;;;;;49.08;29.15;;;1.40;99.90;;;;;;5018237;28;20050;-80
2023/01/22 12:24:32;;;;;;;26.08;18.77;;;1.50;99.90;;;;;;5033311;28;20540;-79
2023/01/22 12:27:15;;;;;;;18.92;13.70;;;1.40;99.90;;;;;;5045619;28;20441;-79
2023/01/22 12:29:52;;;;;;;16.67;12.57;;;1.40;99.90;;;;;;5034073;28;20053;-80
2023/01/22 12:32:20;;;;;;;18.70;12.35;;;1.50;99.90;;;;;;5029511;28;20079;-79
2023/01/22 12:34:49;;;;;;;16.88;12.35;;;1.50;99.90;;;;;;5006267;28;20057;-79
2023/01/22 12:37:24;;;;;;;16.65;12.30;;;1.50;99.90;;;;;;5029749;28;20459;-80
2023/01/22 12:40:06;;;;;;;15.73;12.30;;;1.50;99.90;;;;;;5030107;28;20079;-80
2023/01/22 12:43:05;;;;;;;;;;;1.50;99.90;;;;;;5025700;28;20049;-79
2023/01/22 12:45:52;;;;;;;15.73;11.40;;;1.50;99.90;;;;;;5019480;28;19920;-78
2023/01/22 12:48:39;;;;;;;17.00;11.68;;;1.60;99.90;;;;;;5032150;28;20055;-80
2023/01/22 12:51:36;;;;;;;18.70;12.38;;;1.60;99.90;;;;;;5028909;28;20057;-79
2023/01/22 12:54:27;;;;;;;17.02;12.00;;;1.60;99.90;;;;;;5023459;28;20055;-79
2023/01/22 12:57:10;;;;;;;17.48;12.30;;;1.60;99.90;;;;;;5037181;28;20064;-80
2023/01/22 12:59:38;;;;;;;19.67;13.95;;;1.60;99.90;;;;;;5037440;28;20386;-80